Current Observation

FTSO31 AGGG 222310
TAF AGGH 222310Z 2300/2324 09015KT 9999 –SHDZ SCT018 SCT029
T 31 32 30 28 Q 1013 1011 1010 1012=
  
TAF AGGM 222310Z 2300/2324 09015KT 9999 –SHDZ SCT018 SCT030
PROB40 INTER 2300/2303 3000 SHRA BKN016 
Q 1012 1010 1009 1011=

TAF AGGN 222310Z 2300/2324 11015KT 9999 –SHDZ SCT018 SCT030
PROB40 INTER 2300/2303 3000 SHRA BKN016
Q 1012 1010 1009 1011=
  
TAF AGGC 222310Z 2300/2324 14012KT 9999 -SHRA FEW017 BKN028
INTER 2300/2303 3000 SHRA BKN016
Q 1012 1010 1009 1011=

TAF AGGA 222310Z 2300/2324 VRB03KT 9999 –SHRA FEW017 SCT028
PROB40 INTER 2300/2306 3000 SHRA BKN018
Q 1013 1011 1010 1012=

TAF AGGK 222310Z 2300/2324 09015KT 9999 –SHRA FEW018 BKN030
PROB40 INTER 2300/2307 3000 SHRA BKN016
Q 1013 1011 1010 1012=

TAF AGGL 222310Z 2300/2324 11015KT 9999 –SHRA SCT017 BKN100
PROB40 INTER 2301/2307 3000 SHRA BKN016
Q 1013 1011 1010 1012=

TAF AGGR 222310Z 2300/2324 14017KT 9999 FEW018 SCT030
Q 1013 1011 1010 1012=

Last modified on Wednesday, 23 August 2017 10:16

Weather Outlook

Support and Docs

Modern Design
Go to top